sensor_id;sensor_type;location;lat;lon;timestamp;pressure;altitude;pressure_sealevel;temperature;humidity
36454;BME280;22478;51.740;-1.314;2023-08-12T00:01:25;100219.19;;;15.40;94.24
36454;BME280;22478;51.740;-1.314;2023-08-12T00:03:52;100220.26;;;15.62;93.01
36454;BME280;22478;51.740;-1.314;2023-08-12T00:06:19;100224.04;;;15.80;93.21
36454;BME280;22478;51.740;-1.314;2023-08-12T00:08:46;100216.98;;;15.65;96.13
36454;BME280;22478;51.740;-1.314;2023-08-12T00:11:13;100225.13;;;16.94;89.38
36454;BME280;22478;51.740;-1.314;2023-08-12T00:13:40;100224.70;;;15.67;89.74
36454;BME280;22478;51.740;-1.314;2023-08-12T00:16:07;100221.86;;;15.15;94.38
36454;BME280;22478;51.740;-1.314;2023-08-12T00:18:34;100221.71;;;16.05;91.02
36454;BME280;22478;51.740;-1.314;2023-08-12T00:21:03;100218.43;;;15.62;92.75
36454;BME280;22478;51.740;-1.314;2023-08-12T00:23:30;100221.64;;;16.04;91.28
36454;BME280;22478;51.740;-1.314;2023-08-12T00:25:58;100218.72;;;16.15;88.85
36454;BME280;22478;51.740;-1.314;2023-08-12T00:28:25;100217.29;;;16.22;92.91
36454;BME280;22478;51.740;-1.314;2023-08-12T00:30:52;100222.89;;;13.47;100.00
36454;BME280;22478;51.740;-1.314;2023-08-12T00:33:19;100217.59;;;14.95;99.20
36454;BME280;22478;51.740;-1.314;2023-08-12T00:35:46;100217.00;;;14.91;100.00
36454;BME280;22478;51.740;-1.314;2023-08-12T00:38:13;100213.86;;;15.18;98.05
36454;BME280;22478;51.740;-1.314;2023-08-12T00:40:40;100211.93;;;15.91;92.36
36454;BME280;22478;51.740;-1.314;2023-08-12T00:43:07;100211.76;;;15.50;94.41
36454;BME280;22478;51.740;-1.314;2023-08-12T00:45:34;100211.16;;;16.74;90.95
36454;BME280;22478;51.740;-1.314;2023-08-12T00:48:02;100204.36;;;15.48;93.92
36454;BME280;22478;51.740;-1.314;2023-08-12T00:50:29;100202.53;;;14.89;98.53
36454;BME280;22478;51.740;-1.314;2023-08-12T00:52:57;100200.21;;;14.29;100.00
36454;BME280;22478;51.740;-1.314;2023-08-12T00:55:25;100197.49;;;14.91;99.80
36454;BME280;22478;51.740;-1.314;2023-08-12T00:57:52;100192.18;;;15.44;98.46
36454;BME280;22478;51.740;-1.314;2023-08-12T01:00:19;100193.21;;;15.61;97.32
36454;BME280;22478;51.740;-1.314;2023-08-12T01:02:47;100196.40;;;14.55;100.00
36454;BME280;22478;51.740;-1.314;2023-08-12T01:05:15;100192.35;;;15.80;97.00
36454;BME280;22478;51.740;-1.314;2023-08-12T01:07:42;100189.48;;;15.82;96.73
36454;BME280;22478;51.740;-1.314;2023-08-12T01:10:10;100188.30;;;14.56;100.00
36454;BME280;22478;51.740;-1.314;2023-08-12T01:12:43;100190.31;;;13.75;100.00
36454;BME280;22478;51.740;-1.314;2023-08-12T01:15:15;100182.55;;;15.43;99.19
36454;BME280;22478;51.740;-1.314;2023-08-12T01:17:44;100185.76;;;14.45;100.00
36454;BME280;22478;51.740;-1.314;2023-08-12T01:20:12;100183.68;;;14.52;100.00
36454;BME280;22478;51.740;-1.314;2023-08-12T01:22:41;100179.69;;;15.47;98.13
36454;BME280;22478;51.740;-1.314;2023-08-12T01:25:10;100187.61;;;14.30;100.00
36454;BME280;22478;51.740;-1.314;2023-08-12T01:27:37;100187.40;;;14.95;100.00
36454;BME280;22478;51.740;-1.314;2023-08-12T01:30:07;100185.99;;;15.87;96.45
36454;BME280;22478;51.740;-1.314;2023-08-12T01:32:38;100186.26;;;15.24;96.99
36454;BME280;22478;51.740;-1.314;2023-08-12T01:35:11;100185.40;;;15.39;97.41
36454;BME280;22478;51.740;-1.314;2023-08-12T01:37:42;100186.86;;;13.95;100.00
36454;BME280;22478;51.740;-1.314;2023-08-12T01:40:11;100187.44;;;15.10;98.48
36454;BME280;22478;51.740;-1.314;2023-08-12T01:42:40;100181.85;;;14.81;98.02
36454;BME280;22478;51.740;-1.314;2023-08-12T01:45:08;100182.58;;;15.60;96.43
36454;BME280;22478;51.740;-1.314;2023-08-12T01:47:35;100185.62;;;14.44;100.00
36454;BME280;22478;51.740;-1.314;2023-08-12T01:50:03;100181.36;;;14.96;100.00
36454;BME280;22478;51.740;-1.314;2023-08-12T01:52:31;100177.29;;;14.51;100.00
36454;BME280;22478;51.740;-1.314;2023-08-12T01:54:58;100170.88;;;15.35;98.81
36454;BME280;22478;51.740;-1.314;2023-08-12T01:57:25;100172.80;;;15.58;96.55
36454;BME280;22478;51.740;-1.314;2023-08-12T01:59:52;100171.76;;;15.23;98.42
36454;BME280;22478;51.740;-1.314;2023-08-12T02:02:19;100173.69;;;14.48;100.00
36454;BME280;22478;51.740;-1.314;2023-08-12T02:04:46;100170.27;;;14.90;100.00
36454;BME280;22478;51.740;-1.314;2023-08-12T02:07:13;100170.87;;;14.48;100.00
36454;BME280;22478;51.740;-1.314;2023-08-12T02:09:40;100169.88;;;13.64;100.00
36454;BME280;22478;51.740;-1.314;2023-08-12T02:12:07;100168.86;;;14.34;100.00
36454;BME280;22478;51.740;-1.314;2023-08-12T02:14:34;100166.72;;;13.76;100.00
36454;BME280;22478;51.740;-1.314;2023-08-12T02:17:02;100166.76;;;13.92;100.00
36454;BME280;22478;51.740;-1.314;2023-08-12T02:19:30;100167.97;;;14.60;100.00
36454;BME280;22478;51.740;-1.314;2023-08-12T02:21:57;100165.14;;;13.90;100.00
36454;BME280;22478;51.740;-1.314;2023-08-12T02:24:24;100167.61;;;11.94;100.00
36454;BME280;22478;51.740;-1.314;2023-08-12T02:26:51;100162.44;;;12.63;100.00
36454;BME280;22478;51.740;-1.314;2023-08-12T02:29:18;100157.15;;;12.60;100.00
36454;BME280;22478;51.740;-1.314;2023-08-12T02:31:45;100150.54;;;14.02;100.00
36454;BME280;22478;51.740;-1.314;2023-08-12T02:34:12;100152.24;;;12.96;100.00
36454;BME280;22478;51.740;-1.314;2023-08-12T02:36:39;100146.18;;;13.59;100.00
36454;BME280;22478;51.740;-1.314;2023-08-12T02:39:06;100141.48;;;14.23;100.00
36454;BME280;22478;51.740;-1.314;2023-08-12T02:41:33;100141.65;;;14.10;100.00
36454;BME280;22478;51.740;-1.314;2023-08-12T02:44:00;100140.32;;;14.77;100.00
36454;BME280;22478;51.740;-1.314;2023-08-12T02:46:27;100142.21;;;12.79;100.00
36454;BME280;22478;51.740;-1.314;2023-08-12T02:48:54;100146.29;;;14.60;100.00
36454;BME280;22478;51.740;-1.314;2023-08-12T02:51:21;100143.46;;;12.95;100.00
36454;BME280;22478;51.740;-1.314;2023-08-12T02:53:49;100139.54;;;13.89;100.00
36454;BME280;22478;51.740;-1.314;2023-08-12T02:56:16;100139.30;;;14.19;100.00
36454;BME280;22478;51.740;-1.314;2023-08-12T02:58:43;100142.85;;;13.60;100.00
36454;BME280;22478;51.740;-1.314;2023-08-12T03:01:11;100136.51;;;11.69;100.00
36454;BME280;22478;51.740;-1.314;2023-08-12T03:03:38;100136.31;;;13.52;100.00
36454;BME280;22478;51.740;-1.314;2023-08-12T03:06:05;100132.62;;;14.01;100.00
36454;BME280;22478;51.740;-1.314;2023-08-12T03:08:32;100131.35;;;13.47;100.00
36454;BME280;22478;51.740;-1.314;2023-08-12T03:10:59;100125.56;;;14.20;100.00
36454;BME280;22478;51.740;-1.314;2023-08-12T03:13:27;100126.39;;;12.93;100.00
36454;BME280;22478;51.740;-1.314;2023-08-12T03:15:55;100120.73;;;13.90;100.00
36454;BME280;22478;51.740;-1.314;2023-08-12T03:18:22;100118.74;;;13.46;100.00
36454;BME280;22478;51.740;-1.314;2023-08-12T03:20:49;100117.92;;;14.39;100.00
36454;BME280;22478;51.740;-1.314;2023-08-12T03:23:16;100116.12;;;13.74;100.00
36454;BME280;22478;51.740;-1.314;2023-08-12T03:25:44;100113.51;;;14.25;100.00
36454;BME280;22478;51.740;-1.314;2023-08-12T03:28:13;100116.19;;;14.32;100.00
36454;BME280;22478;51.740;-1.314;2023-08-12T03:30:40;100117.14;;;14.01;100.00
36454;BME280;22478;51.740;-1.314;2023-08-12T03:33:07;100114.60;;;14.81;100.00
36454;BME280;22478;51.740;-1.314;2023-08-12T03:35:34;100120.74;;;13.83;100.00
36454;BME280;22478;51.740;-1.314;2023-08-12T03:38:02;100119.51;;;14.94;100.00
36454;BME280;22478;51.740;-1.314;2023-08-12T03:40:28;100112.47;;;14.71;100.00
36454;BME280;22478;51.740;-1.314;2023-08-12T03:42:56;100103.99;;;14.66;100.00
36454;BME280;22478;51.740;-1.314;2023-08-12T03:45:23;100103.65;;;13.42;100.00
36454;BME280;22478;51.740;-1.314;2023-08-12T03:47:49;100100.11;;;15.07;100.00
36454;BME280;22478;51.740;-1.314;2023-08-12T03:50:17;100096.72;;;14.00;100.00
36454;BME280;22478;51.740;-1.314;2023-08-12T03:52:44;100099.57;;;13.17;100.00
36454;BME280;22478;51.740;-1.314;2023-08-12T03:55:11;100093.60;;;13.94;100.00
36454;BME280;22478;51.740;-1.314;2023-08-12T03:57:39;100089.82;;;14.01;100.00
36454;BME280;22478;51.740;-1.314;2023-08-12T04:00:07;100086.20;;;13.12;100.00
36454;BME280;22478;51.740;-1.314;2023-08-12T04:02:35;100079.52;;;12.97;100.00
36454;BME280;22478;51.740;-1.314;2023-08-12T04:05:02;100075.41;;;13.29;100.00
36454;BME280;22478;51.740;-1.314;2023-08-12T04:07:29;100074.02;;;13.40;100.00
36454;BME280;22478;51.740;-1.314;2023-08-12T04:09:56;100080.01;;;12.64;100.00
36454;BME280;22478;51.740;-1.314;2023-08-12T04:12:23;100077.78;;;13.23;100.00
36454;BME280;22478;51.740;-1.314;2023-08-12T04:14:50;100075.77;;;13.62;100.00
36454;BME280;22478;51.740;-1.314;2023-08-12T04:17:17;100074.03;;;12.83;100.00
36454;BME280;22478;51.740;-1.314;2023-08-12T04:19:45;100064.17;;;13.42;100.00
36454;BME280;22478;51.740;-1.314;2023-08-12T04:22:12;100059.98;;;12.81;100.00
36454;BME280;22478;51.740;-1.314;2023-08-12T04:24:40;100058.96;;;12.35;100.00
36454;BME280;22478;51.740;-1.314;2023-08-12T04:27:07;100060.54;;;12.38;100.00
36454;BME280;22478;51.740;-1.314;2023-08-12T04:29:35;100061.10;;;12.88;100.00
36454;BME280;22478;51.740;-1.314;2023-08-12T04:32:02;100069.97;;;12.82;100.00
36454;BME280;22478;51.740;-1.314;2023-08-12T04:34:30;100073.50;;;12.70;100.00
36454;BME280;22478;51.740;-1.314;2023-08-12T04:36:57;100082.46;;;12.87;100.00
36454;BME280;22478;51.740;-1.314;2023-08-12T04:39:24;100083.47;;;12.92;100.00
36454;BME280;22478;51.740;-1.314;2023-08-12T04:41:51;100083.64;;;13.73;100.00
36454;BME280;22478;51.740;-1.314;2023-08-12T04:44:18;100079.81;;;14.43;100.00
36454;BME280;22478;51.740;-1.314;2023-08-12T04:46:45;100072.84;;;14.41;100.00
36454;BME280;22478;51.740;-1.314;2023-08-12T04:49:13;100070.30;;;13.86;100.00
36454;BME280;22478;51.740;-1.314;2023-08-12T04:51:40;100065.11;;;14.07;100.00
36454;BME280;22478;51.740;-1.314;2023-08-12T04:54:07;100058.82;;;14.88;100.00
36454;BME280;22478;51.740;-1.314;2023-08-12T04:56:34;100057.88;;;13.74;100.00
36454;BME280;22478;51.740;-1.314;2023-08-12T04:59:01;100046.28;;;14.36;100.00
36454;BME280;22478;51.740;-1.314;2023-08-12T05:01:28;100046.48;;;14.05;100.00
36454;BME280;22478;51.740;-1.314;2023-08-12T05:03:56;100043.07;;;13.29;100.00
36454;BME280;22478;51.740;-1.314;2023-08-12T05:06:23;100041.93;;;14.34;100.00
36454;BME280;22478;51.740;-1.314;2023-08-12T05:08:50;100044.67;;;13.45;100.00
36454;BME280;22478;51.740;-1.314;2023-08-12T05:11:17;100045.36;;;13.13;100.00
36454;BME280;22478;51.740;-1.314;2023-08-12T05:13:44;100049.16;;;13.75;100.00
36454;BME280;22478;51.740;-1.314;2023-08-12T05:16:11;100048.70;;;12.74;100.00
36454;BME280;22478;51.740;-1.314;2023-08-12T05:18:38;100049.37;;;13.60;100.00
36454;BME280;22478;51.740;-1.314;2023-08-12T05:21:06;100050.44;;;13.43;100.00
36454;BME280;22478;51.740;-1.314;2023-08-12T05:23:34;100053.71;;;12.10;100.00
36454;BME280;22478;51.740;-1.314;2023-08-12T05:26:00;100049.11;;;13.41;100.00
36454;BME280;22478;51.740;-1.314;2023-08-12T05:28:28;100040.44;;;14.22;100.00
36454;BME280;22478;51.740;-1.314;2023-08-12T05:30:56;100043.54;;;14.41;100.00
36454;BME280;22478;51.740;-1.314;2023-08-12T05:33:23;100042.78;;;13.54;100.00
36454;BME280;22478;51.740;-1.314;2023-08-12T05:35:50;100042.03;;;12.39;100.00
36454;BME280;22478;51.740;-1.314;2023-08-12T05:38:18;100044.02;;;14.44;100.00
36454;BME280;22478;51.740;-1.314;2023-08-12T05:40:45;100045.88;;;12.36;100.00
36454;BME280;22478;51.740;-1.314;2023-08-12T05:43:12;100045.85;;;13.39;100.00
36454;BME280;22478;51.740;-1.314;2023-08-12T05:45:39;100047.91;;;11.95;100.00
36454;BME280;22478;51.740;-1.314;2023-08-12T05:48:08;100042.92;;;13.65;100.00
36454;BME280;22478;51.740;-1.314;2023-08-12T05:50:35;100049.31;;;13.42;100.00
36454;BME280;22478;51.740;-1.314;2023-08-12T05:53:02;100047.87;;;11.14;100.00
36454;BME280;22478;51.740;-1.314;2023-08-12T05:55:29;100054.00;;;13.44;100.00
36454;BME280;22478;51.740;-1.314;2023-08-12T05:57:56;100050.38;;;12.70;100.00
36454;BME280;22478;51.740;-1.314;2023-08-12T06:00:23;100049.96;;;13.24;100.00
36454;BME280;22478;51.740;-1.314;2023-08-12T06:02:50;100048.48;;;13.29;100.00
36454;BME280;22478;51.740;-1.314;2023-08-12T06:05:17;100050.14;;;13.10;100.00
36454;BME280;22478;51.740;-1.314;2023-08-12T06:07:44;100049.86;;;13.28;100.00
36454;BME280;22478;51.740;-1.314;2023-08-12T06:10:11;100051.31;;;13.28;100.00
36454;BME280;22478;51.740;-1.314;2023-08-12T06:12:38;100049.63;;;12.87;100.00
36454;BME280;22478;51.740;-1.314;2023-08-12T06:15:06;100044.76;;;13.47;100.00
36454;BME280;22478;51.740;-1.314;2023-08-12T06:17:33;100037.87;;;13.59;100.00
36454;BME280;22478;51.740;-1.314;2023-08-12T06:20:00;100045.29;;;13.89;100.00
36454;BME280;22478;51.740;-1.314;2023-08-12T06:22:27;100044.69;;;12.68;100.00
36454;BME280;22478;51.740;-1.314;2023-08-12T06:24:55;100042.22;;;14.12;100.00
36454;BME280;22478;51.740;-1.314;2023-08-12T06:27:22;100040.27;;;14.14;100.00
36454;BME280;22478;51.740;-1.314;2023-08-12T06:29:50;100034.89;;;14.76;100.00
36454;BME280;22478;51.740;-1.314;2023-08-12T06:32:17;100033.50;;;13.62;100.00
36454;BME280;22478;51.740;-1.314;2023-08-12T06:34:44;100038.43;;;12.98;100.00
36454;BME280;22478;51.740;-1.314;2023-08-12T06:37:11;100028.78;;;14.95;100.00
36454;BME280;22478;51.740;-1.314;2023-08-12T06:39:39;100042.27;;;13.09;100.00
36454;BME280;22478;51.740;-1.314;2023-08-12T06:42:06;100040.65;;;12.82;100.00
36454;BME280;22478;51.740;-1.314;2023-08-12T06:44:33;100038.78;;;13.23;100.00
36454;BME280;22478;51.740;-1.314;2023-08-12T06:47:00;100038.48;;;12.59;100.00
36454;BME280;22478;51.740;-1.314;2023-08-12T06:49:27;100033.97;;;13.89;100.00
36454;BME280;22478;51.740;-1.314;2023-08-12T06:51:54;100035.28;;;14.41;100.00
36454;BME280;22478;51.740;-1.314;2023-08-12T06:54:21;100038.63;;;15.05;100.00
36454;BME280;22478;51.740;-1.314;2023-08-12T06:56:48;100035.49;;;14.83;100.00
36454;BME280;22478;51.740;-1.314;2023-08-12T06:59:15;100038.31;;;15.21;100.00
36454;BME280;22478;51.740;-1.314;2023-08-12T07:01:43;100038.08;;;14.96;100.00
36454;BME280;22478;51.740;-1.314;2023-08-12T07:04:10;100039.36;;;15.50;100.00
36454;BME280;22478;51.740;-1.314;2023-08-12T07:06:38;100042.33;;;14.89;100.00
36454;BME280;22478;51.740;-1.314;2023-08-12T07:09:05;100039.75;;;15.27;100.00
36454;BME280;22478;51.740;-1.314;2023-08-12T07:11:32;100044.00;;;14.25;100.00
36454;BME280;22478;51.740;-1.314;2023-08-12T07:13:59;100042.00;;;16.06;100.00
36454;BME280;22478;51.740;-1.314;2023-08-12T07:16:26;100043.56;;;14.01;100.00
36454;BME280;22478;51.740;-1.314;2023-08-12T07:18:53;100044.72;;;13.69;100.00
36454;BME280;22478;51.740;-1.314;2023-08-12T07:21:20;100046.06;;;16.11;100.00
36454;BME280;22478;51.740;-1.314;2023-08-12T07:23:48;100050.68;;;15.66;100.00
36454;BME280;22478;51.740;-1.314;2023-08-12T07:26:15;100044.56;;;14.38;100.00
36454;BME280;22478;51.740;-1.314;2023-08-12T07:28:43;100044.74;;;15.20;100.00
36454;BME280;22478;51.740;-1.314;2023-08-12T07:31:10;100039.79;;;15.74;100.00
36454;BME280;22478;51.740;-1.314;2023-08-12T07:33:37;100037.74;;;15.46;100.00
36454;BME280;22478;51.740;-1.314;2023-08-12T07:36:05;100039.87;;;16.07;100.00
36454;BME280;22478;51.740;-1.314;2023-08-12T07:38:32;100041.54;;;15.30;100.00
36454;BME280;22478;51.740;-1.314;2023-08-12T07:40:59;100042.29;;;15.58;100.00
36454;BME280;22478;51.740;-1.314;2023-08-12T07:43:27;100043.53;;;15.88;100.00
36454;BME280;22478;51.740;-1.314;2023-08-12T07:45:54;100036.87;;;16.58;100.00
36454;BME280;22478;51.740;-1.314;2023-08-12T07:48:21;100045.93;;;15.12;100.00
36454;BME280;22478;51.740;-1.314;2023-08-12T07:50:55;100034.92;;;16.25;100.00
36454;BME280;22478;51.740;-1.314;2023-08-12T07:53:23;100036.60;;;15.41;100.00
36454;BME280;22478;51.740;-1.314;2023-08-12T07:55:51;100030.67;;;17.59;100.00
36454;BME280;22478;51.740;-1.314;2023-08-12T07:58:18;100037.71;;;14.04;100.00
36454;BME280;22478;51.740;-1.314;2023-08-12T08:00:46;100038.55;;;15.69;100.00
36454;BME280;22478;51.740;-1.314;2023-08-12T08:03:13;100040.83;;;14.52;100.00
36454;BME280;22478;51.740;-1.314;2023-08-12T08:05:40;100024.73;;;16.03;100.00
36454;BME280;22478;51.740;-1.314;2023-08-12T08:08:07;100041.48;;;15.22;100.00
36454;BME280;22478;51.740;-1.314;2023-08-12T08:10:34;100039.85;;;15.92;100.00
36454;BME280;22478;51.740;-1.314;2023-08-12T08:13:02;100036.94;;;15.60;100.00
36454;BME280;22478;51.740;-1.314;2023-08-12T08:15:29;100027.69;;;16.82;100.00
36454;BME280;22478;51.740;-1.314;2023-08-12T08:17:56;100034.56;;;16.10;100.00
36454;BME280;22478;51.740;-1.314;2023-08-12T08:20:23;100036.89;;;15.26;100.00
36454;BME280;22478;51.740;-1.314;2023-08-12T08:22:50;100031.64;;;16.48;100.00
36454;BME280;22478;51.740;-1.314;2023-08-12T08:25:17;100022.51;;;16.09;100.00
36454;BME280;22478;51.740;-1.314;2023-08-12T08:27:45;100009.39;;;16.35;100.00
36454;BME280;22478;51.740;-1.314;2023-08-12T08:30:12;100008.74;;;16.58;100.00
36454;BME280;22478;51.740;-1.314;2023-08-12T08:32:40;100015.13;;;17.04;97.53
36454;BME280;22478;51.740;-1.314;2023-08-12T08:35:08;100006.24;;;17.59;95.10
36454;BME280;22478;51.740;-1.314;2023-08-12T08:37:35;100004.53;;;17.70;95.45
36454;BME280;22478;51.740;-1.314;2023-08-12T08:40:02;99991.45;;;18.64;91.25
36454;BME280;22478;51.740;-1.314;2023-08-12T08:42:31;99991.68;;;20.01;84.41
36454;BME280;22478;51.740;-1.314;2023-08-12T08:45:00;99992.50;;;17.10;90.34
36454;BME280;22478;51.740;-1.314;2023-08-12T08:47:28;99990.18;;;19.33;78.99
36454;BME280;22478;51.740;-1.314;2023-08-12T08:49:55;99986.65;;;18.57;80.72
36454;BME280;22478;51.740;-1.314;2023-08-12T08:52:24;99994.74;;;19.26;82.15
36454;BME280;22478;51.740;-1.314;2023-08-12T08:54:51;99993.25;;;18.68;83.63
36454;BME280;22478;51.740;-1.314;2023-08-12T08:57:19;100000.04;;;18.83;81.60
36454;BME280;22478;51.740;-1.314;2023-08-12T08:59:46;100002.81;;;18.86;74.23
36454;BME280;22478;51.740;-1.314;2023-08-12T09:02:16;100007.02;;;19.00;78.79
36454;BME280;22478;51.740;-1.314;2023-08-12T09:04:46;100006.96;;;17.97;80.13
36454;BME280;22478;51.740;-1.314;2023-08-12T09:07:13;100009.63;;;17.85;79.51
36454;BME280;22478;51.740;-1.314;2023-08-12T09:09:45;100015.65;;;17.76;85.08
36454;BME280;22478;51.740;-1.314;2023-08-12T09:12:15;100017.68;;;18.69;84.87
36454;BME280;22478;51.740;-1.314;2023-08-12T09:14:43;100018.64;;;19.15;81.34
36454;BME280;22478;51.740;-1.314;2023-08-12T09:17:11;100011.81;;;19.11;83.48
36454;BME280;22478;51.740;-1.314;2023-08-12T09:19:38;100016.38;;;18.49;85.03
36454;BME280;22478;51.740;-1.314;2023-08-12T09:22:06;100020.95;;;18.91;81.44
36454;BME280;22478;51.740;-1.314;2023-08-12T09:24:34;100015.91;;;18.90;78.76
36454;BME280;22478;51.740;-1.314;2023-08-12T09:27:00;100013.07;;;17.48;84.91
36454;BME280;22478;51.740;-1.314;2023-08-12T09:29:30;100013.36;;;17.13;83.05
36454;BME280;22478;51.740;-1.314;2023-08-12T09:32:06;100026.32;;;16.61;84.31
36454;BME280;22478;51.740;-1.314;2023-08-12T09:34:33;100022.98;;;16.41;87.69
36454;BME280;22478;51.740;-1.314;2023-08-12T09:37:01;100017.53;;;16.54;90.91
36454;BME280;22478;51.740;-1.314;2023-08-12T09:39:29;100013.23;;;19.24;79.81
36454;BME280;22478;51.740;-1.314;2023-08-12T09:41:56;100012.41;;;18.77;76.60
36454;BME280;22478;51.740;-1.314;2023-08-12T09:44:23;100006.38;;;18.93;76.51
36454;BME280;22478;51.740;-1.314;2023-08-12T09:46:56;100010.06;;;19.12;75.75
36454;BME280;22478;51.740;-1.314;2023-08-12T09:49:24;99994.02;;;20.88;69.38
36454;BME280;22478;51.740;-1.314;2023-08-12T09:51:52;99994.91;;;21.63;68.25
36454;BME280;22478;51.740;-1.314;2023-08-12T09:54:20;99995.97;;;21.09;66.53
36454;BME280;22478;51.740;-1.314;2023-08-12T09:56:49;100002.37;;;20.11;70.31
36454;BME280;22478;51.740;-1.314;2023-08-12T09:59:19;99997.91;;;20.96;65.06
36454;BME280;22478;51.740;-1.314;2023-08-12T10:01:49;99996.50;;;20.76;66.16
36454;BME280;22478;51.740;-1.314;2023-08-12T10:04:17;99999.43;;;20.03;69.53
36454;BME280;22478;51.740;-1.314;2023-08-12T10:06:45;100003.15;;;18.55;77.70
36454;BME280;22478;51.740;-1.314;2023-08-12T10:09:13;99996.31;;;19.96;75.66
36454;BME280;22478;51.740;-1.314;2023-08-12T10:11:43;100011.45;;;15.90;83.62
36454;BME280;22478;51.740;-1.314;2023-08-12T10:14:10;100008.13;;;19.33;76.55
36454;BME280;22478;51.740;-1.314;2023-08-12T10:16:38;100016.50;;;18.78;86.53
36454;BME280;22478;51.740;-1.314;2023-08-12T10:19:06;100033.64;;;17.35;100.00
36454;BME280;22478;51.740;-1.314;2023-08-12T10:21:34;100038.63;;;17.50;100.00
36454;BME280;22478;51.740;-1.314;2023-08-12T10:24:02;100046.86;;;16.26;100.00
36454;BME280;22478;51.740;-1.314;2023-08-12T10:26:32;100043.27;;;17.06;100.00
36454;BME280;22478;51.740;-1.314;2023-08-12T10:28:59;100040.44;;;15.81;100.00
36454;BME280;22478;51.740;-1.314;2023-08-12T10:31:28;100041.07;;;14.95;100.00
36454;BME280;22478;51.740;-1.314;2023-08-12T10:33:57;100036.01;;;16.11;100.00
36454;BME280;22478;51.740;-1.314;2023-08-12T10:36:26;100042.95;;;15.96;100.00
36454;BME280;22478;51.740;-1.314;2023-08-12T10:38:54;100043.68;;;14.04;100.00
36454;BME280;22478;51.740;-1.314;2023-08-12T10:41:24;100036.94;;;15.73;100.00
36454;BME280;22478;51.740;-1.314;2023-08-12T10:43:53;100040.22;;;14.32;100.00
36454;BME280;22478;51.740;-1.314;2023-08-12T10:46:23;100035.67;;;13.35;100.00
36454;BME280;22478;51.740;-1.314;2023-08-12T10:49:01;100034.38;;;14.72;100.00
36454;BME280;22478;51.740;-1.314;2023-08-12T10:51:46;100026.09;;;15.83;100.00
36454;BME280;22478;51.740;-1.314;2023-08-12T10:54:17;100014.76;;;16.12;100.00
36454;BME280;22478;51.740;-1.314;2023-08-12T10:57:16;100008.66;;;16.86;100.00
36454;BME280;22478;51.740;-1.314;2023-08-12T10:59:51;100007.11;;;15.37;100.00
36454;BME280;22478;51.740;-1.314;2023-08-12T11:02:21;99996.78;;;17.19;100.00
36454;BME280;22478;51.740;-1.314;2023-08-12T11:04:51;99988.44;;;19.80;100.00
36454;BME280;22478;51.740;-1.314;2023-08-12T11:07:21;99975.30;;;20.71;100.00
36454;BME280;22478;51.740;-1.314;2023-08-12T11:09:51;99977.95;;;19.01;100.00
36454;BME280;22478;51.740;-1.314;2023-08-12T11:12:28;99975.70;;;21.85;100.00
36454;BME280;22478;51.740;-1.314;2023-08-12T11:14:58;99978.43;;;20.66;100.00
36454;BME280;22478;51.740;-1.314;2023-08-12T11:17:32;99977.57;;;21.75;100.00
36454;BME280;22478;51.740;-1.314;2023-08-12T11:20:01;99979.99;;;21.79;99.69
36454;BME280;22478;51.740;-1.314;2023-08-12T11:22:30;99978.08;;;21.97;100.00
36454;BME280;22478;51.740;-1.314;2023-08-12T11:24:58;99969.91;;;22.76;90.94
36454;BME280;22478;51.740;-1.314;2023-08-12T11:27:25;99977.07;;;19.50;100.00
36454;BME280;22478;51.740;-1.314;2023-08-12T11:29:53;99978.52;;;20.43;93.24
36454;BME280;22478;51.740;-1.314;2023-08-12T11:32:20;99976.59;;;19.83;90.89
36454;BME280;22478;51.740;-1.314;2023-08-12T11:34:48;99975.09;;;22.91;85.29
36454;BME280;22478;51.740;-1.314;2023-08-12T11:37:16;99971.58;;;22.55;85.89
36454;BME280;22478;51.740;-1.314;2023-08-12T11:39:43;99973.63;;;23.20;81.85
36454;BME280;22478;51.740;-1.314;2023-08-12T11:42:11;99968.87;;;21.66;92.93
36454;BME280;22478;51.740;-1.314;2023-08-12T11:44:40;99973.15;;;22.09;92.41
36454;BME280;22478;51.740;-1.314;2023-08-12T11:47:07;99971.01;;;20.58;85.87
36454;BME280;22478;51.740;-1.314;2023-08-12T11:49:34;99966.83;;;20.69;86.56
36454;BME280;22478;51.740;-1.314;2023-08-12T11:52:01;99964.84;;;20.46;93.66
36454;BME280;22478;51.740;-1.314;2023-08-12T11:54:30;99956.25;;;23.19;79.47
36454;BME280;22478;51.740;-1.314;2023-08-12T11:56:58;99946.33;;;24.05;75.75
36454;BME280;22478;51.740;-1.314;2023-08-12T11:59:25;99944.77;;;24.27;71.30
36454;BME280;22478;51.740;-1.314;2023-08-12T12:01:54;99954.85;;;19.04;83.57
36454;BME280;22478;51.740;-1.314;2023-08-12T12:04:22;99956.73;;;20.37;84.46
36454;BME280;22478;51.740;-1.314;2023-08-12T12:06:50;99954.36;;;20.89;83.31
36454;BME280;22478;51.740;-1.314;2023-08-12T12:09:17;99960.26;;;19.37;100.00
36454;BME280;22478;51.740;-1.314;2023-08-12T12:11:45;99954.80;;;21.20;80.11
36454;BME280;22478;51.740;-1.314;2023-08-12T12:14:12;99953.92;;;21.19;84.68
36454;BME280;22478;51.740;-1.314;2023-08-12T12:16:41;99946.18;;;22.63;84.93
36454;BME280;22478;51.740;-1.314;2023-08-12T12:19:13;99945.03;;;23.47;78.80
36454;BME280;22478;51.740;-1.314;2023-08-12T12:21:42;99948.14;;;21.49;84.65
36454;BME280;22478;51.740;-1.314;2023-08-12T12:24:09;99942.77;;;22.63;68.57
36454;BME280;22478;51.740;-1.314;2023-08-12T12:26:37;99941.10;;;22.96;73.49
36454;BME280;22478;51.740;-1.314;2023-08-12T12:29:05;99943.48;;;21.44;74.34
36454;BME280;22478;51.740;-1.314;2023-08-12T12:31:33;99942.08;;;22.44;72.93
36454;BME280;22478;51.740;-1.314;2023-08-12T12:34:01;99940.03;;;21.97;70.74
36454;BME280;22478;51.740;-1.314;2023-08-12T12:36:28;99941.54;;;21.96;72.50
36454;BME280;22478;51.740;-1.314;2023-08-12T12:38:55;99945.18;;;22.00;72.33